Timeline UpdatesTrip UpdatesNews PostsPvt PostsTravel TipsAdmin PostsConv PostsFollowed PostsChat RequestsBlog PostsPNR Posts

Disclaimer
Search
 
 
Tue Sep 2, 2014 09:56:46 ISTHomeTrainsΣChainsAtlasPNRForumGalleryNewsFAQTripsMembersLoginFeedback
No Recent News for this Train
Other Trains in the News **new
Latest...
.
Thu Jul 24, 2014 (11:10PM)
⇐ Return Journey: Train# 19019

19020/Dehradun - Mumbai Bandra Terminus Express

Time-Table HAS CHANGED.
Yesterday (11:46PM)
Change Departure Station:
Change Arrival Station:
Post a Train Travel TipPost a Train Travel Tip **new
Post a Comment/Question/Picture/VideoPost a Comment/Question/Picture/Video
Pantry/Catering
✕ NO Pantry Car
✓ Catering Avbl
Loco/Rake Reversals
SRE/Saharanpur Junction (6); LRJ/Laksar Junction (4);
RSA - Rake Sharing
Rake/Coach Composition
LOCO-SLR-HCPV-GEN-GEN-AB1-S1-S2-S3-S4-S5-S6-S7-S8-S9-SLR
Loco
GZB WAP-7 NZM-BDTS. ddn to nzm tkd wdp 3a. By Er...
Read more...
Ankit Shotra Bhagat Entry# 595554
News    PNR    Forum    Time-Table    Availability    Fare Chart    Map    Arr/Dep History    Trips    Gallery    ΣChains    X/O    Timeline    
Travel Time: 21h 30m    52 halts    Distance: 922 km    Avg Speed: 42 km/hr
Type: Mail/Express
Zone: WR/Western
Departs @ 06:50
Platform# ???
SMTWTFS
Keshorai Patan/KPTN 
Arrives @ 04:20 +1 night
Platform# 1
SMTWTFS
Mumbai Bandra Terminus/BDTS 

52 halts. 152 intermediate Stations between Keshorai Patan and Mumbai Bandra Terminus

Show ALL intermediate Stations  Show Old Time-Table

#CodeStation NameX/OArrivesAvgDepartsAvgHaltPFDay#KmSpeedElevZoneAddress
1DDNDehradun (4)  -10:35 10:30-21-759.841648mNRDehradun, Uttarakhand
2DWODoiwala  11:04 10:59-11:06 11:01-2m--1-739.939484mNRDehradun, Uttarakhand
3RWLRaiwala Junction (2)X  11:38 11:33-11:40 11:35-2m21-719.233361mNRRishikesh, Uttarakhand
4MOTCMotichur (2)  12:00 11:47-12:02 11:49-2m11-712.610312mNRHaridwar, Uttarakhand
5HWHaridwar Junction (9)X  12:15-12:45-30m31-708.148294mNRHaridwar, Uttarakhand
6JWPJwalapur  12:53 12:50-12:55 12:52-2m--1-704.120292mNRHaridwar, Uttarakhand
7LRJLaksar Junction (4)X14:00-14:25-25m--1-681.259238mNRLaksar, Uttarakhand
8RKRoorkee (3)X  14:43-14:45-2m31-663.442264mNRRoorkee - 247667, Uttarakhand
9SRESaharanpur Junction (6)X15:35-16:05-30m41-628.748276mNRSaharanpur, Uttar Pradesh
10DBDDeoband (2)  16:50 16:48-16:52 16:50-2m21-594.544258mNRSaharanpur, Uttar Pradesh
11MOZMuzaffarnagar (3)X  17:20 17:23-17:22 17:25-2m21-570.463247mNRMuzaffarNagar, Uttar Pradesh
12KATKhatauli (2)  17:42 17:46-17:44 17:48-2m11-548.376239mNRKhatauli, Uttar Pradesh
13MUTMeerut Cantt. (2)  18:08 18:11-18:10 18:13-2m11-519.212230mNRMeerut, Uttar Pradesh
14MTCMeerut City Junction (6)X18:35-19:20-45m41-514.873229mNRMeerut, Uttar Pradesh
15MDNRModinagar (2)X  19:34 19:36-19:36 19:38-2m21-495.455221mNRGhaziabad, Uttar Pradesh
16MUDMuradnagar (2)  19:45 19:49-19:47 19:51-2m21-485.359220mNRGhaziabad, Uttar Pradesh
17GZNNew Ghaziabad (2)X  20:02 20:03-20:04 20:05-2m21-473.513213mNRGhaziabad, Uttar Pradesh
18GZBGhaziabad Junction (6)X  20:30 20:33-20:32 20:35-2m41-467.645217mNRGhaziabad, Uttar Pradesh
19SBBSahibabad Junction (5)X  20:41 20:44-20:43 20:46-2m--1-460.933209mNRGhaziabad, Uttar Pradesh
20NZMDelhi Hazrat Nizamuddin (7)O21:15-21:55-40m11-444.925209mNRNew Delhi 110013, Delhi NCT
21TKDTuglakabad (4)XO  22:18-22:20-2m--1-435.228213mNRNear Tughlakabad Metro Station, Delhi NCT
22FDBFaridabad (4)  22:44-22:46-2m31-424.140206mNRold Faridabad, Haryana
23BVHBallabgarh (5)XO  22:58-23:00-2m--1-416.035203mNRFaridabad, Haryana
24PWLPalwal (8)X  23:36-23:38-2m--1-394.885200mNRPalwal, Haryana
25KSVKosi Kalan (3)O  00:08-00:10-2m22-352.429189mNCRKosi Kalan, Uttar Pradesh
26MTJMathura Junction (10)X  01:35-01:45 01:40-10 5m32-310.967179mNCRMathura, Uttar Pradesh
27BTEBharatpur Junction (5)  02:10-02:15-5m--2-277.484174mWCRBharatpur, Rajasthan
28BXNBayana Junction (3)XO  02:45-02:47-2m--2-235.474198mWCRBayana, Rajasthan
29FSPFateh SinghpuraO  03:03-03:05-2m--2-215.779223mWCRState Highway 1, Rajasthan
30HANHindaun City (2)  03:15-03:17-2m--2-202.556230mWCRKarauli, Rajasthan
31SMBJShri Mahabirji (3)XO  03:26 03:28-03:28 03:30-2m--2-192.345240mWCRKarauli, Rajasthan
32GGCGangapur City (3)  04:10 04:15-04:20 04:25-10m--2-158.264270mWCRGangapur, Rajasthan
33NNWNarayanpur Tatwara (2)XO  04:36 04:41-04:38 04:43-2m--2-141.372256mWCRSawai Madhopur, Rajasthan
34MLZMalarnaX  04:50 04:57-04:52 04:59-2m--2-124.586236mWCRSawai Madhopur, Rajasthan
35SWMSawai Madhopur Junction (4)X  05:20-05:25-5m--2-94.378266mWCRSawai Madhopur, Rajasthan
36IDGIndargarh Sumerganj Mandi (2)X  05:48 05:53-05:50 05:55-2m--2-58.166247mWCRIndargarh, Rajasthan
37LKELakheri (3)O  05:58 06:05-06:00 06:07-2m--2-47.177228mWCRBundi, Rajasthan
38KPZKapren new halt!!X  06:28-06:30-2m--2-20.167234mWCRKota - Lalsot Mega Highway, Rajasthan
39KPTN»Keshorai Patan»X  06:38 06:48-06:40 06:50-2m--20.060243mWCRSH 33, Rajasthan
40GQLGurla  06:48 06:58-06:50 07:00-2m--28.08251mWCRSH 33, Rajasthan
41KOTAKota Junction (5)07:30 07:40-07:50-20 10m2213.435256mWCRKota, Rajasthan
42DKNTDakaniya Talav (2)  08:01 08:06-08:03 08:08-2m2222.779278mWCRKota, Rajasthan
43DARADara  08:30 08:37-08:32 08:39-2m--260.863354mWCRDara, Rajasthan
44MKXMorak (2)X  08:48 08:53-08:50 08:55-2m--275.642337mWCRMorak, Rajasthan
45RMARamganj Mandi Junction (3)  09:03 09:08-09:05 09:10-2m--284.657358mWCRRamganj Mandi, Rajasthan
46JHWJhalawar Road (3)X  09:18 09:23-09:20 09:25-2m--297.055361mWCRJhalawar City, Rajasthan
47BWMBhawani Mandi (3)  09:38 09:43-09:40 09:45-2m--2113.576384mWCRBhawani Mandi, Madhya Pradesh
48GOHGaroth (2)X  09:58 10:03-10:00 10:05-2m12136.132441mWCRMadhya Pradesh 458880, Madhya Pradesh
49SGZShamgarh (3)X  10:25-10:30-5m--2147.067463mWCRMandsaur, Madhya Pradesh
50SVASuwasra (2)  10:42-10:44-2m--2160.466450mWCRSuwasra, Madhya Pradesh
51CMUChau Mahla (3)  10:58-11:00-2m12175.835426mWCRJhalawar, Rajasthan
52THURThuriaX  11:24-11:26-2m--2189.921430mWCRMDR 45, Madhya Pradesh
53VMAVikramgarh Alot (2)X  11:48-11:50-2m12197.661443mWCRKota Division, Madhya Pradesh
54LNRLuni Richha  12:03-12:05-2m--2210.828471mWCRAlote, Madhya Pradesh
55MEPMahidpur Road  12:28-12:30-2m--2221.529493mWCRGogapur, Madhya Pradesh
56NADNagda Junction (4)  13:05-13:15-10m--2238.575468mWRNagda, Madhya Pradesh
57KUHKhachrod (2)  13:26-13:28-2m--2252.357497mWRUjjain, Madhya Pradesh
58RNHRunkheraX  13:39-13:41-2m--2262.863478mWRUjjain, Madhya Pradesh
59BODBangrodX  13:48-13:50-2m--2270.224484mWRRatlam, Madhya Pradesh
60RTMRatlam Junction (7)X  14:15-14:35-20m42280.077495mWRRatlam, Madhya Pradesh
61RTIRaoti (2)  14:56-14:58-2m--2306.971409mWRState Highway 39A, Madhya Pradesh
62BOGBhairongarh (2)  15:08-15:10-2m--2318.851374mWRBhairongarh Railway Station, Madhya Pradesh
63BMIBamnia (2)  15:17-15:19-2m--2324.742392mWRBamnia, Madhya Pradesh
64AGRAmargarh (2)  15:25-15:27-2m--2328.957410mWRSH 39A, Madhya Pradesh
65PCNPanch Pipila (2)  15:37-15:39-2m--2338.384369mWRSH 39A, Madhya Pradesh
66THDRThandla Road (2)  15:49-15:51-2m--2352.360317mWRJhabua, Madhya Pradesh
67MGNMeghnagar (3)  15:59-16:01-2m--2360.373317mWRJhabua, Madhya Pradesh
68ANASAnas (2)  16:13-16:15-2m--2374.879288mWRMadhya Pradesh 389154 ?, Madhya Pradesh
69BIOBordi (2)  16:21-16:23-2m--2382.853289mWRNational Highway 59, Gujarat
70DHDDahod (3)  16:35-16:40-5m--2393.476313mWRDahod, Gujarat
71LMKLimkheda  17:06-17:08-2m--2426.368205mWRLimkheda, Gujarat
72PPDPiplod Junction  17:15-17:17-2m--2434.379209mWRPiplod, Gujarat
73SATSant Road (2)X  17:26-17:28-2m22446.120169mWROrwara, Gujarat
74GDAGodhra Junction (3)X  18:30-18:35-5m102466.565122mWRGodhra, Gujarat
75KRSAKharsaliya (2)X  18:45-18:47-2m--2477.385107mWRPanchmahal, Gujarat
76DRLDerolX  18:56-18:58-2m12490.16881mWRKalol, Gujarat
77CPNChampaner Road JunctionX  19:09-19:11-2m--2502.67578mWRPanchmahal, Gujarat
78SMLASamlaya Junction (3)X  19:20-19:22-2m--2513.84867mWRVadodara, Gujarat
79BRCVadodara Junction (7)  19:55-20:05-10m32540.48936mWRVadodara 390005, Gujarat
80MYGMiyagam Karjan (2)  20:25-20:27-2m--2570.27229mWRKarjan, Gujarat
81BHBharuch Junction (5)X  21:01-21:03-2m42610.96219mWRBharuch, Gujarat
82AKVAnkleshwar Junction (4)X  21:12-21:14-2m22620.27919mWRAnkleshwar, Gujarat
83KSBKosamba Junction (3)X21:29 21:28-21:31 21:30-2m--2638.83130mWRKosamba, Gujarat
84STSurat (4)X  22:30-22:38-8m22670.27119mWRSurat 395001, Gujarat
85NVSNavsari (3)  23:03-23:05-2m--2699.87914mWRNavsari, Gujarat
86BIMBilimora Junction (4)X  23:21-23:23-2m--2720.93611mWRBilimora, Gujarat
87BLValsad (3)  23:53-23:55-2m32738.93815mWRValsad, Gujarat
88VAPIVapi (3)X  00:36-00:38-2m--3765.16027mWRVapi, Gujarat
89PLGPalghar (3)  02:04 02:00-02:06 02:02-2m--3846.63319mWRPalghar, Maharashtra
90VRVirar (8)  02:56 02:58-02:58 03:00-2m--3877.8526mWRDist. Palghar, Maharashtra
91BVIMumbai Borivali (8)  03:30-03:32-2m53903.62319mWRMumbai - 400092, Maharashtra
92BDTS•Mumbai Bandra Terminus (5)•  04:20--13922.3-4mWRMumbai 400050, Maharashtra
Scroll to Top
Scroll to Bottom